sensor_id;sensor_type;location;lat;lon;timestamp;P1;durP1;ratioP1;P2;durP2;ratioP2
10882;SDS011;5494;51.796;10.952;2023-02-04T00:00:25;13.80;;;2.80;;
10882;SDS011;5494;51.796;10.952;2023-02-04T00:02:54;13.33;;;2.70;;
10882;SDS011;5494;51.796;10.952;2023-02-04T00:05:24;9.27;;;2.90;;
10882;SDS011;5494;51.796;10.952;2023-02-04T00:07:52;9.17;;;3.67;;
10882;SDS011;5494;51.796;10.952;2023-02-04T00:10:20;9.50;;;3.57;;
10882;SDS011;5494;51.796;10.952;2023-02-04T00:12:48;12.13;;;3.20;;
10882;SDS011;5494;51.796;10.952;2023-02-04T00:15:15;12.47;;;3.77;;
10882;SDS011;5494;51.796;10.952;2023-02-04T00:17:43;10.20;;;2.67;;
10882;SDS011;5494;51.796;10.952;2023-02-04T00:20:12;13.00;;;3.00;;
10882;SDS011;5494;51.796;10.952;2023-02-04T00:22:41;9.77;;;2.13;;
10882;SDS011;5494;51.796;10.952;2023-02-04T00:25:09;8.30;;;1.93;;
10882;SDS011;5494;51.796;10.952;2023-02-04T00:27:37;15.77;;;2.53;;
10882;SDS011;5494;51.796;10.952;2023-02-04T00:30:05;7.50;;;2.17;;
10882;SDS011;5494;51.796;10.952;2023-02-04T00:32:35;14.13;;;2.60;;
10882;SDS011;5494;51.796;10.952;2023-02-04T00:35:03;3.70;;;1.40;;
10882;SDS011;5494;51.796;10.952;2023-02-04T00:37:32;4.00;;;0.93;;
10882;SDS011;5494;51.796;10.952;2023-02-04T00:40:04;2.53;;;0.90;;
10882;SDS011;5494;51.796;10.952;2023-02-04T00:42:33;2.83;;;0.80;;
10882;SDS011;5494;51.796;10.952;2023-02-04T00:45:01;1.47;;;0.93;;
10882;SDS011;5494;51.796;10.952;2023-02-04T00:47:29;2.97;;;1.00;;
10882;SDS011;5494;51.796;10.952;2023-02-04T00:49:57;1.87;;;0.80;;
10882;SDS011;5494;51.796;10.952;2023-02-04T00:52:25;1.90;;;1.37;;
10882;SDS011;5494;51.796;10.952;2023-02-04T00:54:53;1.53;;;0.93;;
10882;SDS011;5494;51.796;10.952;2023-02-04T00:57:22;1.23;;;1.03;;
10882;SDS011;5494;51.796;10.952;2023-02-04T00:59:50;2.97;;;1.13;;
10882;SDS011;5494;51.796;10.952;2023-02-04T01:02:18;1.50;;;1.10;;
10882;SDS011;5494;51.796;10.952;2023-02-04T01:04:46;1.60;;;1.43;;
10882;SDS011;5494;51.796;10.952;2023-02-04T01:07:16;1.23;;;1.10;;
10882;SDS011;5494;51.796;10.952;2023-02-04T01:09:44;2.23;;;1.20;;
10882;SDS011;5494;51.796;10.952;2023-02-04T01:12:12;1.80;;;1.10;;
10882;SDS011;5494;51.796;10.952;2023-02-04T01:14:42;2.23;;;1.20;;
10882;SDS011;5494;51.796;10.952;2023-02-04T01:17:09;2.57;;;1.27;;
10882;SDS011;5494;51.796;10.952;2023-02-04T01:19:37;1.87;;;1.37;;
10882;SDS011;5494;51.796;10.952;2023-02-04T01:22:05;2.43;;;1.40;;
10882;SDS011;5494;51.796;10.952;2023-02-04T01:24:33;2.27;;;1.07;;
10882;SDS011;5494;51.796;10.952;2023-02-04T01:27:20;3.77;;;1.60;;
10882;SDS011;5494;51.796;10.952;2023-02-04T01:29:49;1.97;;;1.60;;
10882;SDS011;5494;51.796;10.952;2023-02-04T01:32:17;2.13;;;1.50;;
10882;SDS011;5494;51.796;10.952;2023-02-04T01:34:45;2.93;;;1.80;;
10882;SDS011;5494;51.796;10.952;2023-02-04T01:37:13;2.37;;;1.73;;
10882;SDS011;5494;51.796;10.952;2023-02-04T01:39:41;3.50;;;1.60;;
10882;SDS011;5494;51.796;10.952;2023-02-04T01:42:09;2.73;;;1.70;;
10882;SDS011;5494;51.796;10.952;2023-02-04T01:44:38;4.37;;;1.87;;
10882;SDS011;5494;51.796;10.952;2023-02-04T01:47:07;2.73;;;1.60;;
10882;SDS011;5494;51.796;10.952;2023-02-04T01:49:37;2.37;;;1.80;;
10882;SDS011;5494;51.796;10.952;2023-02-04T01:52:05;4.63;;;2.00;;
10882;SDS011;5494;51.796;10.952;2023-02-04T01:54:35;2.77;;;1.70;;
10882;SDS011;5494;51.796;10.952;2023-02-04T01:57:05;3.20;;;1.60;;
10882;SDS011;5494;51.796;10.952;2023-02-04T01:59:39;3.00;;;1.60;;
10882;SDS011;5494;51.796;10.952;2023-02-04T02:05:13;1.60;;;1.50;;
10882;SDS011;5494;51.796;10.952;2023-02-04T02:07:46;2.27;;;1.63;;
10882;SDS011;5494;51.796;10.952;2023-02-04T02:10:15;1.93;;;1.57;;
10882;SDS011;5494;51.796;10.952;2023-02-04T02:12:45;3.70;;;2.00;;
10882;SDS011;5494;51.796;10.952;2023-02-04T02:15:14;2.63;;;1.80;;
10882;SDS011;5494;51.796;10.952;2023-02-04T02:17:48;2.20;;;1.60;;
10882;SDS011;5494;51.796;10.952;2023-02-04T02:20:17;1.63;;;1.37;;
10882;SDS011;5494;51.796;10.952;2023-02-04T02:22:51;2.80;;;1.27;;
10882;SDS011;5494;51.796;10.952;2023-02-04T02:25:30;3.20;;;1.70;;
10882;SDS011;5494;51.796;10.952;2023-02-04T02:28:01;2.03;;;1.20;;
10882;SDS011;5494;51.796;10.952;2023-02-04T02:30:35;2.27;;;1.27;;
10882;SDS011;5494;51.796;10.952;2023-02-04T02:33:04;4.93;;;2.10;;
10882;SDS011;5494;51.796;10.952;2023-02-04T02:35:33;1.40;;;1.30;;
10882;SDS011;5494;51.796;10.952;2023-02-04T02:38:01;2.23;;;1.50;;
10882;SDS011;5494;51.796;10.952;2023-02-04T02:40:30;2.77;;;1.20;;
10882;SDS011;5494;51.796;10.952;2023-02-04T02:43:00;3.40;;;1.50;;
10882;SDS011;5494;51.796;10.952;2023-02-04T02:45:29;1.63;;;1.30;;
10882;SDS011;5494;51.796;10.952;2023-02-04T02:47:59;2.30;;;1.13;;
10882;SDS011;5494;51.796;10.952;2023-02-04T02:50:31;1.77;;;1.38;;
10882;SDS011;5494;51.796;10.952;2023-02-04T02:53:00;1.77;;;1.20;;
10882;SDS011;5494;51.796;10.952;2023-02-04T02:55:30;1.87;;;1.20;;
10882;SDS011;5494;51.796;10.952;2023-02-04T02:58:14;1.70;;;1.30;;
10882;SDS011;5494;51.796;10.952;2023-02-04T03:00:48;2.20;;;1.30;;
10882;SDS011;5494;51.796;10.952;2023-02-04T03:03:20;1.37;;;1.20;;
10882;SDS011;5494;51.796;10.952;2023-02-04T03:05:54;2.20;;;1.23;;
10882;SDS011;5494;51.796;10.952;2023-02-04T03:08:26;1.93;;;1.40;;
10882;SDS011;5494;51.796;10.952;2023-02-04T03:10:56;3.07;;;1.33;;
10882;SDS011;5494;51.796;10.952;2023-02-04T03:13:24;1.57;;;1.27;;
10882;SDS011;5494;51.796;10.952;2023-02-04T03:15:54;3.13;;;1.50;;
10882;SDS011;5494;51.796;10.952;2023-02-04T03:18:24;3.17;;;1.40;;
10882;SDS011;5494;51.796;10.952;2023-02-04T03:20:52;2.37;;;1.40;;
10882;SDS011;5494;51.796;10.952;2023-02-04T03:23:20;2.57;;;1.77;;
10882;SDS011;5494;51.796;10.952;2023-02-04T03:25:48;2.42;;;1.42;;
10882;SDS011;5494;51.796;10.952;2023-02-04T03:28:18;2.87;;;1.47;;
10882;SDS011;5494;51.796;10.952;2023-02-04T03:30:46;3.78;;;2.08;;
10882;SDS011;5494;51.796;10.952;2023-02-04T03:33:19;1.80;;;1.60;;
10882;SDS011;5494;51.796;10.952;2023-02-04T03:35:47;2.88;;;1.60;;
10882;SDS011;5494;51.796;10.952;2023-02-04T03:38:15;2.77;;;1.97;;
10882;SDS011;5494;51.796;10.952;2023-02-04T03:40:45;2.80;;;1.58;;
10882;SDS011;5494;51.796;10.952;2023-02-04T03:43:13;2.42;;;1.70;;
10882;SDS011;5494;51.796;10.952;2023-02-04T03:45:45;2.20;;;1.75;;
10882;SDS011;5494;51.796;10.952;2023-02-04T03:48:13;2.20;;;1.70;;
10882;SDS011;5494;51.796;10.952;2023-02-04T03:50:41;4.37;;;2.47;;
10882;SDS011;5494;51.796;10.952;2023-02-04T03:53:09;2.20;;;1.60;;
10882;SDS011;5494;51.796;10.952;2023-02-04T03:55:38;4.10;;;1.80;;
10882;SDS011;5494;51.796;10.952;2023-02-04T03:58:06;2.00;;;1.63;;
10882;SDS011;5494;51.796;10.952;2023-02-04T04:00:34;2.40;;;1.65;;
10882;SDS011;5494;51.796;10.952;2023-02-04T04:03:03;3.42;;;2.00;;
10882;SDS011;5494;51.796;10.952;2023-02-04T04:05:32;3.17;;;1.80;;
10882;SDS011;5494;51.796;10.952;2023-02-04T04:08:00;2.45;;;1.95;;
10882;SDS011;5494;51.796;10.952;2023-02-04T04:10:28;3.72;;;1.90;;
10882;SDS011;5494;51.796;10.952;2023-02-04T04:12:56;2.50;;;1.73;;
10882;SDS011;5494;51.796;10.952;2023-02-04T04:15:24;2.83;;;2.05;;
10882;SDS011;5494;51.796;10.952;2023-02-04T04:17:52;4.07;;;2.00;;
10882;SDS011;5494;51.796;10.952;2023-02-04T04:20:22;2.28;;;2.00;;
10882;SDS011;5494;51.796;10.952;2023-02-04T04:22:52;2.00;;;1.80;;
10882;SDS011;5494;51.796;10.952;2023-02-04T04:25:20;2.83;;;1.90;;
10882;SDS011;5494;51.796;10.952;2023-02-04T04:27:48;2.33;;;1.70;;
10882;SDS011;5494;51.796;10.952;2023-02-04T04:30:16;3.73;;;2.10;;
10882;SDS011;5494;51.796;10.952;2023-02-04T04:32:44;5.45;;;1.98;;
10882;SDS011;5494;51.796;10.952;2023-02-04T04:35:12;2.80;;;2.07;;
10882;SDS011;5494;51.796;10.952;2023-02-04T04:37:41;3.73;;;1.63;;
10882;SDS011;5494;51.796;10.952;2023-02-04T04:40:10;4.17;;;2.10;;
10882;SDS011;5494;51.796;10.952;2023-02-04T04:42:39;2.20;;;1.90;;
10882;SDS011;5494;51.796;10.952;2023-02-04T04:45:07;2.77;;;2.07;;
10882;SDS011;5494;51.796;10.952;2023-02-04T04:47:36;4.40;;;1.80;;
10882;SDS011;5494;51.796;10.952;2023-02-04T04:50:05;3.88;;;2.00;;
10882;SDS011;5494;51.796;10.952;2023-02-04T04:52:33;2.53;;;2.10;;
10882;SDS011;5494;51.796;10.952;2023-02-04T04:55:03;4.03;;;2.60;;
10882;SDS011;5494;51.796;10.952;2023-02-04T04:57:33;3.00;;;2.30;;
10882;SDS011;5494;51.796;10.952;2023-02-04T05:00:01;3.53;;;2.20;;
10882;SDS011;5494;51.796;10.952;2023-02-04T05:02:30;6.00;;;2.45;;
10882;SDS011;5494;51.796;10.952;2023-02-04T05:04:58;3.13;;;2.60;;
10882;SDS011;5494;51.796;10.952;2023-02-04T05:07:26;5.13;;;2.97;;
10882;SDS011;5494;51.796;10.952;2023-02-04T05:09:54;4.60;;;3.38;;
10882;SDS011;5494;51.796;10.952;2023-02-04T05:12:23;6.47;;;3.97;;
10882;SDS011;5494;51.796;10.952;2023-02-04T05:14:51;5.53;;;3.60;;
10882;SDS011;5494;51.796;10.952;2023-02-04T05:17:19;4.90;;;2.70;;
10882;SDS011;5494;51.796;10.952;2023-02-04T05:19:47;6.30;;;2.85;;
10882;SDS011;5494;51.796;10.952;2023-02-04T05:22:15;3.25;;;2.50;;
10882;SDS011;5494;51.796;10.952;2023-02-04T05:24:43;3.13;;;2.27;;
10882;SDS011;5494;51.796;10.952;2023-02-04T05:27:11;4.63;;;2.70;;
10882;SDS011;5494;51.796;10.952;2023-02-04T05:29:40;4.27;;;2.50;;
10882;SDS011;5494;51.796;10.952;2023-02-04T05:32:10;2.90;;;2.33;;
10882;SDS011;5494;51.796;10.952;2023-02-04T05:34:38;4.38;;;2.30;;
10882;SDS011;5494;51.796;10.952;2023-02-04T05:37:06;3.22;;;2.30;;
10882;SDS011;5494;51.796;10.952;2023-02-04T05:39:34;6.33;;;2.20;;
10882;SDS011;5494;51.796;10.952;2023-02-04T05:42:02;2.80;;;2.10;;
10882;SDS011;5494;51.796;10.952;2023-02-04T05:44:30;3.40;;;1.80;;
10882;SDS011;5494;51.796;10.952;2023-02-04T05:46:59;2.97;;;1.93;;
10882;SDS011;5494;51.796;10.952;2023-02-04T05:49:27;3.70;;;2.10;;
10882;SDS011;5494;51.796;10.952;2023-02-04T05:51:55;3.53;;;2.30;;
10882;SDS011;5494;51.796;10.952;2023-02-04T05:54:23;2.77;;;2.17;;
10882;SDS011;5494;51.796;10.952;2023-02-04T05:56:51;3.57;;;2.20;;
10882;SDS011;5494;51.796;10.952;2023-02-04T05:59:20;3.70;;;2.17;;
10882;SDS011;5494;51.796;10.952;2023-02-04T06:01:48;4.47;;;2.07;;
10882;SDS011;5494;51.796;10.952;2023-02-04T06:04:17;2.30;;;2.10;;
10882;SDS011;5494;51.796;10.952;2023-02-04T06:06:45;4.30;;;2.10;;
10882;SDS011;5494;51.796;10.952;2023-02-04T06:09:13;3.40;;;1.90;;
10882;SDS011;5494;51.796;10.952;2023-02-04T06:11:41;3.93;;;2.33;;
10882;SDS011;5494;51.796;10.952;2023-02-04T06:14:09;2.03;;;1.73;;
10882;SDS011;5494;51.796;10.952;2023-02-04T06:16:37;3.83;;;2.30;;
10882;SDS011;5494;51.796;10.952;2023-02-04T06:19:05;3.83;;;2.20;;
10882;SDS011;5494;51.796;10.952;2023-02-04T06:21:35;3.33;;;2.10;;
10882;SDS011;5494;51.796;10.952;2023-02-04T06:24:03;4.57;;;2.20;;
10882;SDS011;5494;51.796;10.952;2023-02-04T06:26:31;3.60;;;2.50;;
10882;SDS011;5494;51.796;10.952;2023-02-04T06:28:59;2.50;;;1.93;;
10882;SDS011;5494;51.796;10.952;2023-02-04T06:31:28;3.03;;;2.30;;
10882;SDS011;5494;51.796;10.952;2023-02-04T06:33:56;3.53;;;2.47;;
10882;SDS011;5494;51.796;10.952;2023-02-04T06:36:24;3.33;;;2.17;;
10882;SDS011;5494;51.796;10.952;2023-02-04T06:38:53;4.27;;;2.30;;
10882;SDS011;5494;51.796;10.952;2023-02-04T06:41:21;5.13;;;2.70;;
10882;SDS011;5494;51.796;10.952;2023-02-04T06:43:49;5.83;;;2.57;;
10882;SDS011;5494;51.796;10.952;2023-02-04T06:46:17;3.20;;;2.40;;
10882;SDS011;5494;51.796;10.952;2023-02-04T06:48:49;3.30;;;2.13;;
10882;SDS011;5494;51.796;10.952;2023-02-04T06:51:17;4.03;;;2.10;;
10882;SDS011;5494;51.796;10.952;2023-02-04T06:53:45;3.00;;;1.90;;
10882;SDS011;5494;51.796;10.952;2023-02-04T06:56:14;3.73;;;3.30;;
10882;SDS011;5494;51.796;10.952;2023-02-04T06:58:42;2.60;;;2.00;;
10882;SDS011;5494;51.796;10.952;2023-02-04T07:01:10;4.73;;;2.57;;
10882;SDS011;5494;51.796;10.952;2023-02-04T07:03:38;2.78;;;2.13;;
10882;SDS011;5494;51.796;10.952;2023-02-04T07:06:06;3.33;;;2.30;;
10882;SDS011;5494;51.796;10.952;2023-02-04T07:08:36;4.13;;;2.53;;
10882;SDS011;5494;51.796;10.952;2023-02-04T07:11:04;3.70;;;2.60;;
10882;SDS011;5494;51.796;10.952;2023-02-04T07:13:34;3.95;;;2.40;;
10882;SDS011;5494;51.796;10.952;2023-02-04T07:16:02;5.25;;;2.30;;
10882;SDS011;5494;51.796;10.952;2023-02-04T07:18:32;4.83;;;2.70;;
10882;SDS011;5494;51.796;10.952;2023-02-04T07:21:00;5.65;;;2.63;;
10882;SDS011;5494;51.796;10.952;2023-02-04T07:23:28;3.33;;;2.40;;
10882;SDS011;5494;51.796;10.952;2023-02-04T07:25:56;7.53;;;2.60;;
10882;SDS011;5494;51.796;10.952;2023-02-04T07:28:27;3.17;;;2.40;;
10882;SDS011;5494;51.796;10.952;2023-02-04T07:30:58;2.97;;;2.27;;
10882;SDS011;5494;51.796;10.952;2023-02-04T07:33:26;3.00;;;2.70;;
10882;SDS011;5494;51.796;10.952;2023-02-04T07:35:53;3.88;;;2.10;;
10882;SDS011;5494;51.796;10.952;2023-02-04T07:38:21;5.83;;;2.30;;
10882;SDS011;5494;51.796;10.952;2023-02-04T07:40:49;3.63;;;2.30;;
10882;SDS011;5494;51.796;10.952;2023-02-04T07:43:17;2.77;;;2.30;;
10882;SDS011;5494;51.796;10.952;2023-02-04T07:45:45;4.40;;;2.40;;
10882;SDS011;5494;51.796;10.952;2023-02-04T07:48:14;3.93;;;2.77;;
10882;SDS011;5494;51.796;10.952;2023-02-04T07:50:43;3.70;;;3.07;;
10882;SDS011;5494;51.796;10.952;2023-02-04T07:53:10;3.50;;;2.43;;
10882;SDS011;5494;51.796;10.952;2023-02-04T07:55:39;4.03;;;2.67;;
10882;SDS011;5494;51.796;10.952;2023-02-04T07:58:07;4.23;;;2.43;;
10882;SDS011;5494;51.796;10.952;2023-02-04T08:00:35;5.57;;;3.00;;
10882;SDS011;5494;51.796;10.952;2023-02-04T08:03:03;5.93;;;2.93;;
10882;SDS011;5494;51.796;10.952;2023-02-04T08:05:33;4.20;;;2.47;;
10882;SDS011;5494;51.796;10.952;2023-02-04T08:08:01;3.40;;;2.53;;
10882;SDS011;5494;51.796;10.952;2023-02-04T08:10:29;4.90;;;2.93;;
10882;SDS011;5494;51.796;10.952;2023-02-04T08:12:57;4.97;;;3.40;;
10882;SDS011;5494;51.796;10.952;2023-02-04T08:15:25;7.00;;;4.73;;
10882;SDS011;5494;51.796;10.952;2023-02-04T08:17:53;8.23;;;4.80;;
10882;SDS011;5494;51.796;10.952;2023-02-04T08:20:21;6.00;;;4.40;;
10882;SDS011;5494;51.796;10.952;2023-02-04T08:22:50;8.60;;;3.80;;
10882;SDS011;5494;51.796;10.952;2023-02-04T08:25:18;4.63;;;3.23;;
10882;SDS011;5494;51.796;10.952;2023-02-04T08:27:46;3.77;;;2.73;;
10882;SDS011;5494;51.796;10.952;2023-02-04T08:30:14;4.83;;;2.30;;
10882;SDS011;5494;51.796;10.952;2023-02-04T08:32:42;3.63;;;2.60;;
10882;SDS011;5494;51.796;10.952;2023-02-04T08:35:10;5.00;;;2.20;;
10882;SDS011;5494;51.796;10.952;2023-02-04T08:37:38;4.23;;;2.17;;
10882;SDS011;5494;51.796;10.952;2023-02-04T08:40:07;2.93;;;2.10;;
10882;SDS011;5494;51.796;10.952;2023-02-04T08:42:37;3.10;;;2.37;;
10882;SDS011;5494;51.796;10.952;2023-02-04T08:45:05;3.53;;;2.00;;
10882;SDS011;5494;51.796;10.952;2023-02-04T08:47:34;2.77;;;1.97;;
10882;SDS011;5494;51.796;10.952;2023-02-04T08:50:02;3.13;;;2.30;;
10882;SDS011;5494;51.796;10.952;2023-02-04T08:52:30;3.33;;;1.87;;
10882;SDS011;5494;51.796;10.952;2023-02-04T08:54:58;3.93;;;2.37;;
10882;SDS011;5494;51.796;10.952;2023-02-04T08:57:27;6.27;;;2.27;;
10882;SDS011;5494;51.796;10.952;2023-02-04T08:59:55;3.83;;;2.43;;
10882;SDS011;5494;51.796;10.952;2023-02-04T09:02:23;3.47;;;2.20;;
10882;SDS011;5494;51.796;10.952;2023-02-04T09:04:51;2.90;;;2.00;;
10882;SDS011;5494;51.796;10.952;2023-02-04T09:07:20;2.30;;;2.00;;
10882;SDS011;5494;51.796;10.952;2023-02-04T09:09:48;3.87;;;2.40;;
10882;SDS011;5494;51.796;10.952;2023-02-04T09:12:16;3.60;;;2.30;;
10882;SDS011;5494;51.796;10.952;2023-02-04T09:14:45;2.90;;;1.90;;
10882;SDS011;5494;51.796;10.952;2023-02-04T09:17:13;3.10;;;1.97;;
10882;SDS011;5494;51.796;10.952;2023-02-04T09:19:41;4.67;;;2.00;;
10882;SDS011;5494;51.796;10.952;2023-02-04T09:22:09;2.80;;;2.07;;
10882;SDS011;5494;51.796;10.952;2023-02-04T09:24:38;2.30;;;2.10;;
10882;SDS011;5494;51.796;10.952;2023-02-04T09:27:06;4.07;;;1.80;;
10882;SDS011;5494;51.796;10.952;2023-02-04T09:29:34;3.43;;;2.20;;
10882;SDS011;5494;51.796;10.952;2023-02-04T09:32:03;5.07;;;2.03;;
10882;SDS011;5494;51.796;10.952;2023-02-04T09:34:32;3.33;;;2.47;;
10882;SDS011;5494;51.796;10.952;2023-02-04T09:37:00;3.97;;;1.90;;
10882;SDS011;5494;51.796;10.952;2023-02-04T09:39:28;2.47;;;1.73;;
10882;SDS011;5494;51.796;10.952;2023-02-04T09:41:57;2.20;;;1.97;;
10882;SDS011;5494;51.796;10.952;2023-02-04T09:44:26;2.60;;;1.60;;
10882;SDS011;5494;51.796;10.952;2023-02-04T09:46:55;3.27;;;1.83;;
10882;SDS011;5494;51.796;10.952;2023-02-04T09:49:28;2.47;;;1.50;;
10882;SDS011;5494;51.796;10.952;2023-02-04T09:51:56;3.73;;;1.70;;
10882;SDS011;5494;51.796;10.952;2023-02-04T09:54:25;1.97;;;1.60;;
10882;SDS011;5494;51.796;10.952;2023-02-04T09:56:53;2.63;;;1.63;;
10882;SDS011;5494;51.796;10.952;2023-02-04T09:59:22;2.83;;;1.70;;
10882;SDS011;5494;51.796;10.952;2023-02-04T10:01:54;2.93;;;2.03;;
10882;SDS011;5494;51.796;10.952;2023-02-04T10:04:27;2.10;;;1.70;;
10882;SDS011;5494;51.796;10.952;2023-02-04T10:06:55;2.30;;;2.00;;
10882;SDS011;5494;51.796;10.952;2023-02-04T10:09:24;3.33;;;2.30;;
10882;SDS011;5494;51.796;10.952;2023-02-04T10:11:53;3.40;;;2.10;;
10882;SDS011;5494;51.796;10.952;2023-02-04T10:14:21;2.87;;;2.00;;
10882;SDS011;5494;51.796;10.952;2023-02-04T10:16:51;4.40;;;2.10;;
10882;SDS011;5494;51.796;10.952;2023-02-04T10:19:25;3.13;;;2.50;;
10882;SDS011;5494;51.796;10.952;2023-02-04T10:21:56;3.43;;;2.13;;
10882;SDS011;5494;51.796;10.952;2023-02-04T10:24:26;4.20;;;2.30;;
10882;SDS011;5494;51.796;10.952;2023-02-04T10:27:05;3.23;;;2.40;;
10882;SDS011;5494;51.796;10.952;2023-02-04T10:29:34;3.90;;;2.57;;
10882;SDS011;5494;51.796;10.952;2023-02-04T10:32:03;4.23;;;1.97;;
10882;SDS011;5494;51.796;10.952;2023-02-04T10:34:33;3.57;;;1.70;;
10882;SDS011;5494;51.796;10.952;2023-02-04T10:37:10;2.03;;;1.53;;
10882;SDS011;5494;51.796;10.952;2023-02-04T10:39:45;2.93;;;1.10;;
10882;SDS011;5494;51.796;10.952;2023-02-04T10:42:19;1.43;;;1.30;;
10882;SDS011;5494;51.796;10.952;2023-02-04T10:44:49;1.53;;;1.43;;
10882;SDS011;5494;51.796;10.952;2023-02-04T10:47:18;3.60;;;2.17;;
10882;SDS011;5494;51.796;10.952;2023-02-04T10:49:53;2.03;;;1.10;;
10882;SDS011;5494;51.796;10.952;2023-02-04T10:52:25;1.73;;;1.40;;
10882;SDS011;5494;51.796;10.952;2023-02-04T10:55:01;2.00;;;1.50;;
10882;SDS011;5494;51.796;10.952;2023-02-04T10:57:37;2.50;;;1.40;;
10882;SDS011;5494;51.796;10.952;2023-02-04T11:00:13;3.30;;;1.23;;
10882;SDS011;5494;51.796;10.952;2023-02-04T11:02:46;2.90;;;1.30;;
10882;SDS011;5494;51.796;10.952;2023-02-04T11:05:28;2.53;;;1.40;;
10882;SDS011;5494;51.796;10.952;2023-02-04T11:07:58;2.73;;;1.67;;
10882;SDS011;5494;51.796;10.952;2023-02-04T11:10:29;2.40;;;1.50;;
10882;SDS011;5494;51.796;10.952;2023-02-04T11:13:01;1.97;;;1.17;;
10882;SDS011;5494;51.796;10.952;2023-02-04T11:15:37;3.50;;;1.83;;
10882;SDS011;5494;51.796;10.952;2023-02-04T11:18:26;2.83;;;1.97;;
10882;SDS011;5494;51.796;10.952;2023-02-04T11:20:57;4.20;;;3.23;;
10882;SDS011;5494;51.796;10.952;2023-02-04T11:23:31;3.00;;;2.00;;
10882;SDS011;5494;51.796;10.952;2023-02-04T11:26:04;7.47;;;1.93;;
10882;SDS011;5494;51.796;10.952;2023-02-04T11:28:44;2.67;;;1.53;;
10882;SDS011;5494;51.796;10.952;2023-02-04T11:31:26;1.50;;;1.20;;
10882;SDS011;5494;51.796;10.952;2023-02-04T11:34:24;2.00;;;1.13;;
10882;SDS011;5494;51.796;10.952;2023-02-04T11:37:02;1.87;;;1.40;;
10882;SDS011;5494;51.796;10.952;2023-02-04T11:39:53;3.07;;;1.30;;
10882;SDS011;5494;51.796;10.952;2023-02-04T11:42:28;2.07;;;1.30;;
10882;SDS011;5494;51.796;10.952;2023-02-04T11:45:10;2.40;;;1.33;;
10882;SDS011;5494;51.796;10.952;2023-02-04T11:47:42;2.20;;;1.53;;
10882;SDS011;5494;51.796;10.952;2023-02-04T11:50:12;1.53;;;1.37;;
10882;SDS011;5494;51.796;10.952;2023-02-04T11:52:48;3.53;;;2.00;;
10882;SDS011;5494;51.796;10.952;2023-02-04T11:55:16;2.63;;;1.97;;
10882;SDS011;5494;51.796;10.952;2023-02-04T11:57:49;4.70;;;2.80;;
10882;SDS011;5494;51.796;10.952;2023-02-04T12:00:20;4.23;;;2.10;;
10882;SDS011;5494;51.796;10.952;2023-02-04T12:02:53;4.13;;;2.43;;
10882;SDS011;5494;51.796;10.952;2023-02-04T12:05:35;3.77;;;1.67;;
10882;SDS011;5494;51.796;10.952;2023-02-04T12:08:12;4.10;;;1.50;;
10882;SDS011;5494;51.796;10.952;2023-02-04T12:10:58;2.63;;;2.13;;
10882;SDS011;5494;51.796;10.952;2023-02-04T12:13:33;5.17;;;2.40;;
10882;SDS011;5494;51.796;10.952;2023-02-04T12:16:13;3.27;;;2.00;;
10882;SDS011;5494;51.796;10.952;2023-02-04T12:18:41;2.43;;;1.53;;
10882;SDS011;5494;51.796;10.952;2023-02-04T12:21:09;3.47;;;1.50;;
10882;SDS011;5494;51.796;10.952;2023-02-04T12:23:38;3.53;;;1.80;;
10882;SDS011;5494;51.796;10.952;2023-02-04T12:26:10;2.30;;;1.13;;
10882;SDS011;5494;51.796;10.952;2023-02-04T12:28:38;1.33;;;1.00;;
10882;SDS011;5494;51.796;10.952;2023-02-04T12:31:06;1.67;;;1.13;;
10882;SDS011;5494;51.796;10.952;2023-02-04T12:33:35;1.17;;;1.07;;
10882;SDS011;5494;51.796;10.952;2023-02-04T12:36:03;2.87;;;1.40;;
10882;SDS011;5494;51.796;10.952;2023-02-04T12:38:31;3.47;;;1.00;;
10882;SDS011;5494;51.796;10.952;2023-02-04T12:41:00;2.93;;;1.23;;
10882;SDS011;5494;51.796;10.952;2023-02-04T12:43:28;1.40;;;0.90;;
10882;SDS011;5494;51.796;10.952;2023-02-04T12:45:56;1.87;;;0.90;;
10882;SDS011;5494;51.796;10.952;2023-02-04T12:48:24;1.77;;;0.90;;
10882;SDS011;5494;51.796;10.952;2023-02-04T12:50:52;5.03;;;0.77;;
10882;SDS011;5494;51.796;10.952;2023-02-04T12:53:20;2.40;;;0.90;;
10882;SDS011;5494;51.796;10.952;2023-02-04T12:55:48;1.03;;;0.70;;
10882;SDS011;5494;51.796;10.952;2023-02-04T12:58:18;1.03;;;0.60;;
10882;SDS011;5494;51.796;10.952;2023-02-04T13:00:45;1.00;;;0.90;;
10882;SDS011;5494;51.796;10.952;2023-02-04T13:03:13;3.23;;;0.87;;
10882;SDS011;5494;51.796;10.952;2023-02-04T13:05:41;3.27;;;0.80;;
10882;SDS011;5494;51.796;10.952;2023-02-04T13:08:10;3.70;;;1.03;;
10882;SDS011;5494;51.796;10.952;2023-02-04T13:10:38;1.13;;;0.70;;
10882;SDS011;5494;51.796;10.952;2023-02-04T13:13:05;2.07;;;0.83;;
10882;SDS011;5494;51.796;10.952;2023-02-04T13:15:35;6.53;;;3.33;;
10882;SDS011;5494;51.796;10.952;2023-02-04T13:18:03;4.30;;;3.63;;
10882;SDS011;5494;51.796;10.952;2023-02-04T13:20:31;3.23;;;1.80;;
10882;SDS011;5494;51.796;10.952;2023-02-04T13:22:59;2.60;;;1.20;;
10882;SDS011;5494;51.796;10.952;2023-02-04T13:25:27;3.23;;;1.10;;
10882;SDS011;5494;51.796;10.952;2023-02-04T13:27:54;4.03;;;1.33;;
10882;SDS011;5494;51.796;10.952;2023-02-04T13:30:22;2.73;;;0.90;;
10882;SDS011;5494;51.796;10.952;2023-02-04T13:32:52;4.10;;;1.00;;
10882;SDS011;5494;51.796;10.952;2023-02-04T13:35:20;2.03;;;1.10;;
10882;SDS011;5494;51.796;10.952;2023-02-04T13:37:48;3.53;;;1.50;;
10882;SDS011;5494;51.796;10.952;2023-02-04T13:40:16;1.27;;;1.10;;
10882;SDS011;5494;51.796;10.952;2023-02-04T13:42:44;1.80;;;1.20;;
10882;SDS011;5494;51.796;10.952;2023-02-04T13:45:12;3.83;;;1.40;;
10882;SDS011;5494;51.796;10.952;2023-02-04T13:47:41;3.00;;;1.50;;
10882;SDS011;5494;51.796;10.952;2023-02-04T13:50:10;2.50;;;0.90;;
10882;SDS011;5494;51.796;10.952;2023-02-04T13:52:38;2.30;;;1.17;;
10882;SDS011;5494;51.796;10.952;2023-02-04T13:55:06;3.87;;;1.50;;
10882;SDS011;5494;51.796;10.952;2023-02-04T13:57:35;3.47;;;1.70;;
10882;SDS011;5494;51.796;10.952;2023-02-04T14:00:03;2.97;;;1.10;;
10882;SDS011;5494;51.796;10.952;2023-02-04T14:02:39;2.33;;;1.00;;
10882;SDS011;5494;51.796;10.952;2023-02-04T14:05:08;1.80;;;1.00;;
10882;SDS011;5494;51.796;10.952;2023-02-04T14:07:37;1.20;;;0.90;;
10882;SDS011;5494;51.796;10.952;2023-02-04T14:10:05;2.20;;;0.70;;
10882;SDS011;5494;51.796;10.952;2023-02-04T14:12:34;2.83;;;1.27;;
10882;SDS011;5494;51.796;10.952;2023-02-04T14:15:02;2.87;;;0.97;;
10882;SDS011;5494;51.796;10.952;2023-02-04T14:17:31;1.73;;;1.30;;
10882;SDS011;5494;51.796;10.952;2023-02-04T14:19:59;1.67;;;1.17;;
10882;SDS011;5494;51.796;10.952;2023-02-04T14:22:28;3.77;;;1.43;;
10882;SDS011;5494;51.796;10.952;2023-02-04T14:24:57;1.23;;;1.03;;
10882;SDS011;5494;51.796;10.952;2023-02-04T14:27:25;1.50;;;1.30;;
10882;SDS011;5494;51.796;10.952;2023-02-04T14:29:53;2.40;;;1.50;;
10882;SDS011;5494;51.796;10.952;2023-02-04T14:32:24;2.97;;;1.77;;
10882;SDS011;5494;51.796;10.952;2023-02-04T14:34:52;2.93;;;1.40;;
10882;SDS011;5494;51.796;10.952;2023-02-04T14:37:19;3.60;;;1.77;;
10882;SDS011;5494;51.796;10.952;2023-02-04T14:39:50;3.17;;;1.73;;
10882;SDS011;5494;51.796;10.952;2023-02-04T14:42:20;4.27;;;2.03;;
10882;SDS011;5494;51.796;10.952;2023-02-04T14:44:48;5.63;;;2.10;;
10882;SDS011;5494;51.796;10.952;2023-02-04T14:47:17;2.37;;;1.50;;
10882;SDS011;5494;51.796;10.952;2023-02-04T14:49:45;2.60;;;1.20;;
10882;SDS011;5494;51.796;10.952;2023-02-04T14:52:13;2.13;;;0.97;;
10882;SDS011;5494;51.796;10.952;2023-02-04T14:54:42;1.00;;;0.90;;
10882;SDS011;5494;51.796;10.952;2023-02-04T14:57:09;2.77;;;1.03;;
10882;SDS011;5494;51.796;10.952;2023-02-04T14:59:40;1.80;;;1.17;;
10882;SDS011;5494;51.796;10.952;2023-02-04T15:02:08;1.17;;;0.83;;
10882;SDS011;5494;51.796;10.952;2023-02-04T15:04:40;1.57;;;1.13;;